sensor_id;sensor_type;location;lat;lon;timestamp;pressure;altitude;pressure_sealevel;temperature;humidity
49030;BME280;43337;52.070;4.508;2023-03-03T00:00:27;102735.81;;;1.68;100.00
49030;BME280;43337;52.070;4.508;2023-03-03T00:02:52;102719.91;;;1.55;100.00
49030;BME280;43337;52.070;4.508;2023-03-03T00:05:17;102740.09;;;1.66;100.00
49030;BME280;43337;52.070;4.508;2023-03-03T00:07:44;102746.19;;;1.67;100.00
49030;BME280;43337;52.070;4.508;2023-03-03T00:10:10;102747.06;;;1.67;100.00
49030;BME280;43337;52.070;4.508;2023-03-03T00:12:45;102717.16;;;1.49;100.00
49030;BME280;43337;52.070;4.508;2023-03-03T00:15:15;102740.97;;;1.65;100.00
49030;BME280;43337;52.070;4.508;2023-03-03T00:17:41;102722.50;;;1.55;100.00
49030;BME280;43337;52.070;4.508;2023-03-03T00:20:33;102740.97;;;1.65;100.00
49030;BME280;43337;52.070;4.508;2023-03-03T00:23:19;102754.75;;;1.64;100.00
49030;BME280;43337;52.070;4.508;2023-03-03T00:25:49;102747.78;;;1.62;100.00
49030;BME280;43337;52.070;4.508;2023-03-03T00:28:21;102758.19;;;1.63;100.00
49030;BME280;43337;52.070;4.508;2023-03-03T00:30:47;102749.44;;;1.60;100.00
49030;BME280;43337;52.070;4.508;2023-03-03T00:33:27;102747.72;;;1.60;100.00
49030;BME280;43337;52.070;4.508;2023-03-03T00:35:55;102751.06;;;1.55;100.00
49030;BME280;43337;52.070;4.508;2023-03-03T00:38:21;102746.84;;;1.58;100.00
49030;BME280;43337;52.070;4.508;2023-03-03T00:40:47;102737.97;;;1.50;100.00
49030;BME280;43337;52.070;4.508;2023-03-03T00:43:24;102746.75;;;1.55;100.00
49030;BME280;43337;52.070;4.508;2023-03-03T00:45:54;102741.38;;;1.49;100.00
49030;BME280;43337;52.070;4.508;2023-03-03T00:48:22;102749.28;;;1.54;100.00
49030;BME280;43337;52.070;4.508;2023-03-03T00:50:48;102739.47;;;1.42;100.00
49030;BME280;43337;52.070;4.508;2023-03-03T00:53:16;102743.88;;;1.44;100.00
49030;BME280;43337;52.070;4.508;2023-03-03T00:55:43;102750.97;;;1.52;100.00
49030;BME280;43337;52.070;4.508;2023-03-03T00:58:08;102750.91;;;1.49;100.00
49030;BME280;43337;52.070;4.508;2023-03-03T01:00:35;102744.91;;;1.51;100.00
49030;BME280;43337;52.070;4.508;2023-03-03T01:03:03;102728.13;;;1.38;100.00
49030;BME280;43337;52.070;4.508;2023-03-03T01:05:29;102722.81;;;1.34;100.00
49030;BME280;43337;52.070;4.508;2023-03-03T01:07:55;102740.41;;;1.44;100.00
49030;BME280;43337;52.070;4.508;2023-03-03T01:10:20;102745.69;;;1.47;100.00
49030;BME280;43337;52.070;4.508;2023-03-03T01:12:46;102755.38;;;1.54;100.00
49030;BME280;43337;52.070;4.508;2023-03-03T01:15:13;102745.59;;;1.44;100.00
49030;BME280;43337;52.070;4.508;2023-03-03T01:17:47;102752.78;;;1.54;100.00
49030;BME280;43337;52.070;4.508;2023-03-03T01:20:13;102755.38;;;1.54;100.00
49030;BME280;43337;52.070;4.508;2023-03-03T01:22:39;102746.50;;;1.46;100.00
49030;BME280;43337;52.070;4.508;2023-03-03T01:25:05;102750.97;;;1.52;100.00
49030;BME280;43337;52.070;4.508;2023-03-03T01:27:31;102739.63;;;1.48;100.00
49030;BME280;43337;52.070;4.508;2023-03-03T01:29:56;102735.91;;;1.38;100.00
49030;BME280;43337;52.070;4.508;2023-03-03T01:32:23;102749.91;;;1.43;100.00
49030;BME280;43337;52.070;4.508;2023-03-03T01:34:49;102731.53;;;1.36;100.00
49030;BME280;43337;52.070;4.508;2023-03-03T01:37:14;102747.31;;;1.43;100.00
49030;BME280;43337;52.070;4.508;2023-03-03T01:39:39;102716.63;;;1.27;100.00
49030;BME280;43337;52.070;4.508;2023-03-03T01:42:05;102749.91;;;1.43;100.00
49030;BME280;43337;52.070;4.508;2023-03-03T01:44:31;102741.91;;;1.36;100.00
49030;BME280;43337;52.070;4.508;2023-03-03T01:49:40;102765.47;;;1.43;100.00
49030;BME280;43337;52.070;4.508;2023-03-03T01:52:41;102751.47;;;1.38;100.00
49030;BME280;43337;52.070;4.508;2023-03-03T01:55:15;102761.91;;;1.40;100.00
49030;BME280;43337;52.070;4.508;2023-03-03T01:57:45;102751.44;;;1.35;100.00
49030;BME280;43337;52.070;4.508;2023-03-03T02:00:13;102742.69;;;1.32;100.00
49030;BME280;43337;52.070;4.508;2023-03-03T02:02:39;102744.34;;;1.30;100.00
49030;BME280;43337;52.070;4.508;2023-03-03T02:05:06;102753.09;;;1.33;100.00
49030;BME280;43337;52.070;4.508;2023-03-03T02:07:32;102751.38;;;1.34;100.00
49030;BME280;43337;52.070;4.508;2023-03-03T02:10:06;102748.66;;;1.29;100.00
49030;BME280;43337;52.070;4.508;2023-03-03T02:12:48;102732.94;;;1.23;100.00
49030;BME280;43337;52.070;4.508;2023-03-03T02:15:34;102749.53;;;1.30;100.00
49030;BME280;43337;52.070;4.508;2023-03-03T02:21:33;102753.75;;;1.26;100.00
49030;BME280;43337;52.070;4.508;2023-03-03T02:26:33;102739.78;;;1.19;100.00
49030;BME280;43337;52.070;4.508;2023-03-03T02:28:58;102746.72;;;1.22;100.00
49030;BME280;43337;52.070;4.508;2023-03-03T02:31:26;102739.63;;;1.15;100.00
49030;BME280;43337;52.070;4.508;2023-03-03T02:33:52;102745.84;;;1.20;100.00
49030;BME280;43337;52.070;4.508;2023-03-03T02:36:25;102750.16;;;1.19;100.00
49030;BME280;43337;52.070;4.508;2023-03-03T02:41:28;102747.47;;;1.16;100.00
49030;BME280;43337;52.070;4.508;2023-03-03T02:44:17;102744.81;;;1.15;100.00
49030;BME280;43337;52.070;4.508;2023-03-03T02:46:45;102746.53;;;1.14;100.00
49030;BME280;43337;52.070;4.508;2023-03-03T02:49:13;102714.13;;;0.98;100.00
49030;BME280;43337;52.070;4.508;2023-03-03T02:51:40;102731.69;;;1.09;100.00
49030;BME280;43337;52.070;4.508;2023-03-03T02:54:07;102736.97;;;1.12;100.00
49030;BME280;43337;52.070;4.508;2023-03-03T02:56:34;102729.09;;;1.09;100.00
49030;BME280;43337;52.070;4.508;2023-03-03T02:59:00;102708.91;;;0.97;100.00
49030;BME280;43337;52.070;4.508;2023-03-03T03:01:26;102705.28;;;0.92;100.00
49030;BME280;43337;52.070;4.508;2023-03-03T03:03:51;102728.91;;;1.03;100.00
49030;BME280;43337;52.070;4.508;2023-03-03T03:06:17;102734.09;;;1.03;100.00
49030;BME280;43337;52.070;4.508;2023-03-03T03:08:42;102720.09;;;0.96;100.00
49030;BME280;43337;52.070;4.508;2023-03-03T03:11:08;102741.13;;;1.07;100.00
49030;BME280;43337;52.070;4.508;2023-03-03T03:13:33;102743.69;;;1.05;100.00
49030;BME280;43337;52.070;4.508;2023-03-03T03:15:59;102743.56;;;1.01;100.00
49030;BME280;43337;52.070;4.508;2023-03-03T03:18:25;102755.69;;;1.02;100.00
49030;BME280;43337;52.070;4.508;2023-03-03T03:20:51;102725.97;;;0.89;100.00
49030;BME280;43337;52.070;4.508;2023-03-03T03:23:17;102748.56;;;0.94;100.00
49030;BME280;43337;52.070;4.508;2023-03-03T03:25:42;102751.13;;;0.93;100.00
49030;BME280;43337;52.070;4.508;2023-03-03T03:28:13;102745.81;;;0.88;100.00
49030;BME280;43337;52.070;4.508;2023-03-03T03:30:39;102755.28;;;0.88;100.00
49030;BME280;43337;52.070;4.508;2023-03-03T03:33:05;102763.00;;;0.85;100.00
49030;BME280;43337;52.070;4.508;2023-03-03T03:35:32;102750.50;;;0.71;100.00
49030;BME280;43337;52.070;4.508;2023-03-03T03:37:57;102757.50;;;0.74;100.00
49030;BME280;43337;52.070;4.508;2023-03-03T03:40:23;102753.66;;;0.61;100.00
49030;BME280;43337;52.070;4.508;2023-03-03T03:42:49;102765.09;;;0.68;100.00
49030;BME280;43337;52.070;4.508;2023-03-03T03:45:15;102770.28;;;0.68;100.00
49030;BME280;43337;52.070;4.508;2023-03-03T03:47:41;102772.22;;;0.75;100.00
49030;BME280;43337;52.070;4.508;2023-03-03T03:50:07;102736.44;;;0.62;100.00
49030;BME280;43337;52.070;4.508;2023-03-03T03:52:33;102748.91;;;0.75;100.00
49030;BME280;43337;52.070;4.508;2023-03-03T03:54:58;102767.38;;;0.87;100.00
49030;BME280;43337;52.070;4.508;2023-03-03T03:57:24;102753.41;;;0.82;100.00
49030;BME280;43337;52.070;4.508;2023-03-03T03:59:49;102766.72;;;0.94;100.00
49030;BME280;43337;52.070;4.508;2023-03-03T04:02:15;102758.75;;;0.88;100.00
49030;BME280;43337;52.070;4.508;2023-03-03T04:04:40;102750.31;;;0.94;100.00
49030;BME280;43337;52.070;4.508;2023-03-03T04:07:06;102773.84;;;1.02;100.00
49030;BME280;43337;52.070;4.508;2023-03-03T04:09:31;102773.22;;;1.10;100.00
49030;BME280;43337;52.070;4.508;2023-03-03T04:11:57;102771.34;;;1.05;100.00
49030;BME280;43337;52.070;4.508;2023-03-03T04:14:22;102743.41;;;0.96;100.00
49030;BME280;43337;52.070;4.508;2023-03-03T04:16:48;102773.41;;;1.16;100.00
49030;BME280;43337;52.070;4.508;2023-03-03T04:19:13;102763.72;;;1.11;100.00
49030;BME280;43337;52.070;4.508;2023-03-03T04:21:39;102754.09;;;1.07;100.00
49030;BME280;43337;52.070;4.508;2023-03-03T04:24:04;102764.66;;;1.13;100.00
49030;BME280;43337;52.070;4.508;2023-03-03T04:26:30;102783.06;;;1.22;100.00
49030;BME280;43337;52.070;4.508;2023-03-03T04:28:56;102782.25;;;1.23;100.00
49030;BME280;43337;52.070;4.508;2023-03-03T04:31:22;102756.81;;;1.11;100.00
49030;BME280;43337;52.070;4.508;2023-03-03T04:33:50;102778.75;;;1.22;100.00
49030;BME280;43337;52.070;4.508;2023-03-03T04:36:15;102771.88;;;1.23;100.00
49030;BME280;43337;52.070;4.508;2023-03-03T04:38:40;102750.75;;;1.11;100.00
49030;BME280;43337;52.070;4.508;2023-03-03T04:41:06;102766.59;;;1.20;100.00
49030;BME280;43337;52.070;4.508;2023-03-03T04:43:31;102758.75;;;1.18;100.00
49030;BME280;43337;52.070;4.508;2023-03-03T04:45:57;102772.00;;;1.29;100.00
49030;BME280;43337;52.070;4.508;2023-03-03T04:48:22;102774.78;;;1.35;100.00
49030;BME280;43337;52.070;4.508;2023-03-03T04:50:47;102769.50;;;1.32;100.00
49030;BME280;43337;52.070;4.508;2023-03-03T04:53:13;102786.19;;;1.42;100.00
49030;BME280;43337;52.070;4.508;2023-03-03T04:55:39;102767.81;;;1.34;100.00
49030;BME280;43337;52.070;4.508;2023-03-03T04:58:05;102762.63;;;1.34;100.00
49030;BME280;43337;52.070;4.508;2023-03-03T05:00:31;102765.28;;;1.36;100.00
49030;BME280;43337;52.070;4.508;2023-03-03T05:02:57;102794.13;;;1.48;100.00
49030;BME280;43337;52.070;4.508;2023-03-03T05:05:22;102786.38;;;1.50;100.00
49030;BME280;43337;52.070;4.508;2023-03-03T05:07:48;102778.44;;;1.43;100.00
49030;BME280;43337;52.070;4.508;2023-03-03T05:10:13;102791.56;;;1.50;100.00
49030;BME280;43337;52.070;4.508;2023-03-03T05:12:39;102781.13;;;1.46;100.00
49030;BME280;43337;52.070;4.508;2023-03-03T05:15:05;102785.56;;;1.51;100.00
49030;BME280;43337;52.070;4.508;2023-03-03T05:17:30;102794.38;;;1.57;100.00
49030;BME280;43337;52.070;4.508;2023-03-03T05:19:56;102778.56;;;1.48;100.00
49030;BME280;43337;52.070;4.508;2023-03-03T05:22:22;102758.41;;;1.38;100.00
49030;BME280;43337;52.070;4.508;2023-03-03T05:24:47;102786.59;;;1.57;100.00
49030;BME280;43337;52.070;4.508;2023-03-03T05:27:14;102794.44;;;1.59;100.00
49030;BME280;43337;52.070;4.508;2023-03-03T05:29:39;102792.72;;;1.59;100.00
49030;BME280;43337;52.070;4.508;2023-03-03T05:32:05;102788.41;;;1.61;100.00
49030;BME280;43337;52.070;4.508;2023-03-03T05:34:30;102770.81;;;1.50;100.00
49030;BME280;43337;52.070;4.508;2023-03-03T05:36:56;102786.66;;;1.59;100.00
49030;BME280;43337;52.070;4.508;2023-03-03T05:39:21;102783.09;;;1.55;100.00
49030;BME280;43337;52.070;4.508;2023-03-03T05:41:47;102774.34;;;1.52;100.00
49030;BME280;43337;52.070;4.508;2023-03-03T05:44:13;102770.03;;;1.52;100.00
49030;BME280;43337;52.070;4.508;2023-03-03T05:46:38;102771.84;;;1.55;100.00
49030;BME280;43337;52.070;4.508;2023-03-03T05:49:04;102735.84;;;1.35;100.00
49030;BME280;43337;52.070;4.508;2023-03-03T05:51:29;102782.41;;;1.62;100.00
49030;BME280;43337;52.070;4.508;2023-03-03T05:53:54;102784.06;;;1.60;100.00
49030;BME280;43337;52.070;4.508;2023-03-03T05:56:20;102783.31;;;1.64;100.00
49030;BME280;43337;52.070;4.508;2023-03-03T05:58:46;102785.03;;;1.64;100.00
49030;BME280;43337;52.070;4.508;2023-03-03T06:01:11;102782.34;;;1.61;100.00
49030;BME280;43337;52.070;4.508;2023-03-03T06:03:36;102765.69;;;1.53;100.00
49030;BME280;43337;52.070;4.508;2023-03-03T06:06:02;102769.38;;;1.61;100.00
49030;BME280;43337;52.070;4.508;2023-03-03T06:08:27;102759.63;;;1.51;100.00
49030;BME280;43337;52.070;4.508;2023-03-03T06:10:53;102781.66;;;1.66;100.00
49030;BME280;43337;52.070;4.508;2023-03-03T06:13:19;102788.56;;;1.66;100.00
49030;BME280;43337;52.070;4.508;2023-03-03T06:15:44;102790.09;;;1.58;100.00
49030;BME280;43337;52.070;4.508;2023-03-03T06:18:09;102806.00;;;1.71;100.00
49030;BME280;43337;52.070;4.508;2023-03-03T06:20:35;102799.00;;;1.69;100.00
49030;BME280;43337;52.070;4.508;2023-03-03T06:23:01;102789.34;;;1.63;100.00
49030;BME280;43337;52.070;4.508;2023-03-03T06:25:26;102769.16;;;1.52;100.00
49030;BME280;43337;52.070;4.508;2023-03-03T06:27:52;102814.72;;;1.74;100.00
49030;BME280;43337;52.070;4.508;2023-03-03T06:30:18;102796.28;;;1.64;100.00
49030;BME280;43337;52.070;4.508;2023-03-03T06:32:44;102797.31;;;1.69;100.00
49030;BME280;43337;52.070;4.508;2023-03-03T06:35:09;102812.03;;;1.70;100.00
49030;BME280;43337;52.070;4.508;2023-03-03T06:37:35;102806.78;;;1.69;100.00
49030;BME280;43337;52.070;4.508;2023-03-03T06:40:00;102792.72;;;1.61;100.00
49030;BME280;43337;52.070;4.508;2023-03-03T06:42:35;102805.97;;;1.70;100.00
49030;BME280;43337;52.070;4.508;2023-03-03T06:45:00;102812.94;;;1.73;100.00
49030;BME280;43337;52.070;4.508;2023-03-03T06:47:25;102806.69;;;1.64;100.00
49030;BME280;43337;52.070;4.508;2023-03-03T06:49:51;102822.53;;;1.75;100.00
49030;BME280;43337;52.070;4.508;2023-03-03T06:52:21;102820.81;;;1.76;100.00
49030;BME280;43337;52.070;4.508;2023-03-03T06:54:47;102833.00;;;1.78;100.00
49030;BME280;43337;52.070;4.508;2023-03-03T06:57:21;102798.78;;;1.60;100.00
49030;BME280;43337;52.070;4.508;2023-03-03T06:59:51;102829.63;;;1.81;100.00
49030;BME280;43337;52.070;4.508;2023-03-03T07:02:17;102836.59;;;1.83;100.00
49030;BME280;43337;52.070;4.508;2023-03-03T07:04:44;102844.44;;;1.85;100.00
49030;BME280;43337;52.070;4.508;2023-03-03T07:07:22;102831.38;;;1.82;100.00
49030;BME280;43337;52.070;4.508;2023-03-03T07:09:54;102841.88;;;1.86;100.00
49030;BME280;43337;52.070;4.508;2023-03-03T07:12:22;102841.91;;;1.88;100.00
49030;BME280;43337;52.070;4.508;2023-03-03T07:14:51;102846.31;;;1.90;100.00
49030;BME280;43337;52.070;4.508;2023-03-03T07:17:21;102840.22;;;1.88;100.00
49030;BME280;43337;52.070;4.508;2023-03-03T07:19:47;102843.81;;;1.95;100.00
49030;BME280;43337;52.070;4.508;2023-03-03T07:22:18;102847.16;;;1.89;100.00
49030;BME280;43337;52.070;4.508;2023-03-03T07:24:54;102847.34;;;1.97;100.00
49030;BME280;43337;52.070;4.508;2023-03-03T07:27:26;102837.63;;;1.88;100.00
49030;BME280;43337;52.070;4.508;2023-03-03T07:30:16;102853.44;;;1.99;100.00
49030;BME280;43337;52.070;4.508;2023-03-03T07:32:41;102850.81;;;1.98;100.00
49030;BME280;43337;52.070;4.508;2023-03-03T07:37:58;102851.91;;;2.07;100.00
49030;BME280;43337;52.070;4.508;2023-03-03T07:40:36;102866.00;;;2.15;100.00
49030;BME280;43337;52.070;4.508;2023-03-03T07:43:28;102870.44;;;2.19;100.00
49030;BME280;43337;52.070;4.508;2023-03-03T07:48:58;102880.16;;;2.28;100.00
49030;BME280;43337;52.070;4.508;2023-03-03T07:51:27;102874.19;;;2.31;100.00
49030;BME280;43337;52.070;4.508;2023-03-03T07:56:39;102861.91;;;2.25;100.00
49030;BME280;43337;52.070;4.508;2023-03-03T07:59:23;102886.53;;;2.41;100.00
49030;BME280;43337;52.070;4.508;2023-03-03T08:01:56;102879.75;;;2.46;100.00
49030;BME280;43337;52.070;4.508;2023-03-03T08:04:36;102888.53;;;2.51;100.00
49030;BME280;43337;52.070;4.508;2023-03-03T08:07:11;102891.25;;;2.57;100.00
49030;BME280;43337;52.070;4.508;2023-03-03T08:09:48;102894.00;;;2.62;100.00
49030;BME280;43337;52.070;4.508;2023-03-03T08:12:21;102891.41;;;2.63;100.00
49030;BME280;43337;52.070;4.508;2023-03-03T08:14:50;102883.63;;;2.65;100.00
49030;BME280;43337;52.070;4.508;2023-03-03T08:17:21;102902.91;;;2.73;100.00
49030;BME280;43337;52.070;4.508;2023-03-03T08:19:48;102897.66;;;2.72;100.00
49030;BME280;43337;52.070;4.508;2023-03-03T08:22:17;102906.44;;;2.77;100.00
49030;BME280;43337;52.070;4.508;2023-03-03T08:24:43;102916.19;;;2.85;100.00
49030;BME280;43337;52.070;4.508;2023-03-03T08:27:08;102914.56;;;2.89;100.00
49030;BME280;43337;52.070;4.508;2023-03-03T08:29:34;102911.03;;;2.87;100.00
49030;BME280;43337;52.070;4.508;2023-03-03T08:31:59;102905.88;;;2.88;100.00
49030;BME280;43337;52.070;4.508;2023-03-03T08:34:24;102915.63;;;2.99;100.00
49030;BME280;43337;52.070;4.508;2023-03-03T08:36:50;102902.41;;;2.89;100.00
49030;BME280;43337;52.070;4.508;2023-03-03T08:39:15;102927.06;;;3.05;100.00
49030;BME280;43337;52.070;4.508;2023-03-03T08:41:41;102918.50;;;3.11;100.00
49030;BME280;43337;52.070;4.508;2023-03-03T08:44:09;102898.44;;;3.07;100.00
49030;BME280;43337;52.070;4.508;2023-03-03T08:46:34;102924.88;;;3.25;100.00
49030;BME280;43337;52.070;4.508;2023-03-03T08:49:00;102931.97;;;3.32;100.00
49030;BME280;43337;52.070;4.508;2023-03-03T08:51:25;102931.22;;;3.38;100.00
49030;BME280;43337;52.070;4.508;2023-03-03T08:53:51;102912.19;;;3.40;100.00
49030;BME280;43337;52.070;4.508;2023-03-03T08:56:16;102915.72;;;3.44;100.00
49030;BME280;43337;52.070;4.508;2023-03-03T08:58:42;102923.84;;;3.58;100.00
49030;BME280;43337;52.070;4.508;2023-03-03T09:01:15;102905.41;;;3.49;100.00
49030;BME280;43337;52.070;4.508;2023-03-03T09:03:44;102932.69;;;3.67;100.00
49030;BME280;43337;52.070;4.508;2023-03-03T09:06:10;102917.88;;;3.65;100.00
49030;BME280;43337;52.070;4.508;2023-03-03T09:08:36;102926.69;;;3.70;100.00
49030;BME280;43337;52.070;4.508;2023-03-03T09:11:01;102910.97;;;3.65;100.00
49030;BME280;43337;52.070;4.508;2023-03-03T09:13:28;102915.41;;;3.73;100.00
49030;BME280;43337;52.070;4.508;2023-03-03T09:15:55;102918.13;;;3.77;100.00
49030;BME280;43337;52.070;4.508;2023-03-03T09:18:35;102924.47;;;3.91;100.00
49030;BME280;43337;52.070;4.508;2023-03-03T09:21:01;102901.94;;;3.95;100.00
49030;BME280;43337;52.070;4.508;2023-03-03T09:23:55;102924.16;;;4.22;100.00
49030;BME280;43337;52.070;4.508;2023-03-03T09:26:29;102924.41;;;4.37;100.00
49030;BME280;43337;52.070;4.508;2023-03-03T09:31:50;102917.13;;;4.71;100.00
49030;BME280;43337;52.070;4.508;2023-03-03T09:34:26;102913.84;;;4.84;100.00
49030;BME280;43337;52.070;4.508;2023-03-03T09:36:55;102913.00;;;4.85;100.00
49030;BME280;43337;52.070;4.508;2023-03-03T09:39:21;102920.13;;;4.98;100.00
49030;BME280;43337;52.070;4.508;2023-03-03T09:42:57;102928.91;;;5.02;100.00
49030;BME280;43337;52.070;4.508;2023-03-03T09:45:10;102922.00;;;5.07;100.00
49030;BME280;43337;52.070;4.508;2023-03-03T09:55:58;102928.34;;;5.26;100.00
49030;BME280;43337;52.070;4.508;2023-03-03T10:01:32;102930.03;;;5.22;100.00
49030;BME280;43337;52.070;4.508;2023-03-03T10:04:10;102923.94;;;5.22;100.00
49030;BME280;43337;52.070;4.508;2023-03-03T10:15:29;102917.63;;;5.04;100.00
49030;BME280;43337;52.070;4.508;2023-03-03T10:18:19;102907.19;;;5.06;100.00
49030;BME280;43337;52.070;4.508;2023-03-03T10:21:07;102918.66;;;5.17;100.00
49030;BME280;43337;52.070;4.508;2023-03-03T10:31:30;102909.25;;;5.28;100.00
49030;BME280;43337;52.070;4.508;2023-03-03T10:34:26;102911.06;;;5.35;100.00
49030;BME280;43337;52.070;4.508;2023-03-03T10:37:03;102930.31;;;5.44;100.00
49030;BME280;43337;52.070;4.508;2023-03-03T10:39:54;102923.34;;;5.43;100.00
49030;BME280;43337;52.070;4.508;2023-03-03T10:45:27;102932.94;;;5.45;100.00
49030;BME280;43337;52.070;4.508;2023-03-03T10:48:10;102930.34;;;5.45;100.00
49030;BME280;43337;52.070;4.508;2023-03-03T10:53:20;102925.09;;;5.44;100.00
49030;BME280;43337;52.070;4.508;2023-03-03T10:55:53;102927.72;;;5.45;100.00
49030;BME280;43337;52.070;4.508;2023-03-03T11:01:26;102923.47;;;5.52;100.00
49030;BME280;43337;52.070;4.508;2023-03-03T11:18:01;102902.91;;;5.82;100.00
49030;BME280;43337;52.070;4.508;2023-03-03T11:20:30;102916.25;;;6.07;100.00
49030;BME280;43337;52.070;4.508;2023-03-03T11:23:23;102907.66;;;6.20;100.00
49030;BME280;43337;52.070;4.508;2023-03-03T11:28:51;102922.09;;;6.80;100.00
49030;BME280;43337;52.070;4.508;2023-03-03T11:31:46;102914.34;;;6.99;100.00
49030;BME280;43337;52.070;4.508;2023-03-03T11:40:08;102903.22;;;7.38;100.00
49030;BME280;43337;52.070;4.508;2023-03-03T11:45:39;102903.25;;;7.46;100.00
49030;BME280;43337;52.070;4.508;2023-03-03T11:50:46;102897.97;;;7.44;100.00
49030;BME280;43337;52.070;4.508;2023-03-03T11:53:45;102886.63;;;7.44;100.00
49030;BME280;43337;52.070;4.508;2023-03-03T12:01:25;102891.84;;;7.45;100.00
49030;BME280;43337;52.070;4.508;2023-03-03T12:04:13;102887.47;;;7.40;100.00
49030;BME280;43337;52.070;4.508;2023-03-03T12:10:21;102896.19;;;7.37;100.00
49030;BME280;43337;52.070;4.508;2023-03-03T12:18:34;102881.41;;;7.47;100.00
49030;BME280;43337;52.070;4.508;2023-03-03T12:21:17;102876.22;;;7.71;100.00
49030;BME280;43337;52.070;4.508;2023-03-03T12:27:02;102868.41;;;8.11;100.00
49030;BME280;43337;52.070;4.508;2023-03-03T12:29:54;102877.13;;;8.25;100.00
49030;BME280;43337;52.070;4.508;2023-03-03T12:35:54;102864.00;;;8.30;100.00
49030;BME280;43337;52.070;4.508;2023-03-03T12:38:25;102864.88;;;8.33;100.00
49030;BME280;43337;52.070;4.508;2023-03-03T12:41:02;102865.75;;;8.29;100.00
49030;BME280;43337;52.070;4.508;2023-03-03T12:43:54;102868.38;;;8.29;100.00
49030;BME280;43337;52.070;4.508;2023-03-03T12:48:46;102850.88;;;8.15;100.00
49030;BME280;43337;52.070;4.508;2023-03-03T12:51:46;102869.28;;;8.16;100.00
49030;BME280;43337;52.070;4.508;2023-03-03T12:54:23;102864.03;;;8.12;100.00
49030;BME280;43337;52.070;4.508;2023-03-03T12:56:57;102855.28;;;8.10;100.00
49030;BME280;43337;52.070;4.508;2023-03-03T12:59:44;102838.66;;;8.00;100.00
49030;BME280;43337;52.070;4.508;2023-03-03T13:05:14;102865.78;;;8.17;100.00
49030;BME280;43337;52.070;4.508;2023-03-03T13:10:26;102860.53;;;8.28;100.00
49030;BME280;43337;52.070;4.508;2023-03-03T13:16:01;102857.94;;;8.43;100.00
49030;BME280;43337;52.070;4.508;2023-03-03T13:18:31;102847.44;;;8.43;100.00
49030;BME280;43337;52.070;4.508;2023-03-03T13:21:25;102856.16;;;8.45;100.00
49030;BME280;43337;52.070;4.508;2023-03-03T13:29:03;102850.06;;;8.42;100.00
49030;BME280;43337;52.070;4.508;2023-03-03T13:31:36;102832.53;;;8.27;100.00
49030;BME280;43337;52.070;4.508;2023-03-03T13:34:02;102841.28;;;8.35;100.00
49030;BME280;43337;52.070;4.508;2023-03-03T13:36:40;102857.06;;;8.38;100.00
49030;BME280;43337;52.070;4.508;2023-03-03T13:41:50;102854.44;;;8.43;100.00
49030;BME280;43337;52.070;4.508;2023-03-03T13:44:30;102860.56;;;8.42;100.00
49030;BME280;43337;52.070;4.508;2023-03-03T13:47:21;102853.56;;;8.39;100.00
49030;BME280;43337;52.070;4.508;2023-03-03T13:52:23;102849.19;;;8.40;100.00
49030;BME280;43337;52.070;4.508;2023-03-03T13:57:55;102856.19;;;8.39;100.00
49030;BME280;43337;52.070;4.508;2023-03-03T14:03:04;102855.31;;;8.42;100.00
49030;BME280;43337;52.070;4.508;2023-03-03T14:05:36;102844.78;;;8.34;100.00
49030;BME280;43337;52.070;4.508;2023-03-03T14:10:55;102848.28;;;8.36;100.00
49030;BME280;43337;52.070;4.508;2023-03-03T14:13:29;102844.78;;;8.36;100.00
49030;BME280;43337;52.070;4.508;2023-03-03T14:16:06;102841.28;;;8.30;100.00
49030;BME280;43337;52.070;4.508;2023-03-03T14:18:47;102848.28;;;8.36;100.00
49030;BME280;43337;52.070;4.508;2023-03-03T14:21:34;102842.16;;;8.31;100.00
49030;BME280;43337;52.070;4.508;2023-03-03T14:24:21;102844.78;;;8.34;100.00
49030;BME280;43337;52.070;4.508;2023-03-03T14:26:57;102854.41;;;8.35;100.00
49030;BME280;43337;52.070;4.508;2023-03-03T14:31:52;102847.41;;;8.32;100.00
49030;BME280;43337;52.070;4.508;2023-03-03T14:34:35;102843.03;;;8.31;100.00
49030;BME280;43337;52.070;4.508;2023-03-03T14:37:27;102840.41;;;8.28;100.00
49030;BME280;43337;52.070;4.508;2023-03-03T14:40:02;102846.53;;;8.24;100.00
49030;BME280;43337;52.070;4.508;2023-03-03T14:45:35;102830.78;;;8.17;100.00
49030;BME280;43337;52.070;4.508;2023-03-03T14:48:22;102835.19;;;8.12;100.00
49030;BME280;43337;52.070;4.508;2023-03-03T14:50:58;102823.81;;;8.03;100.00
49030;BME280;43337;52.070;4.508;2023-03-03T14:53:41;102844.78;;;8.08;100.00
49030;BME280;43337;52.070;4.508;2023-03-03T14:56:25;102832.53;;;8.05;100.00
49030;BME280;43337;52.070;4.508;2023-03-03T15:01:37;102832.56;;;8.04;100.00
49030;BME280;43337;52.070;4.508;2023-03-03T15:09:19;102814.16;;;7.90;100.00
49030;BME280;43337;52.070;4.508;2023-03-03T15:11:50;102818.53;;;7.87;100.00
49030;BME280;43337;52.070;4.508;2023-03-03T15:14:17;102814.16;;;7.82;100.00
49030;BME280;43337;52.070;4.508;2023-03-03T15:16:44;102815.03;;;7.83;100.00
49030;BME280;43337;52.070;4.508;2023-03-03T15:22:01;102822.94;;;7.85;100.00
49030;BME280;43337;52.070;4.508;2023-03-03T15:24:39;102806.31;;;7.78;100.00
49030;BME280;43337;52.070;4.508;2023-03-03T15:27:20;102796.69;;;7.69;100.00
49030;BME280;43337;52.070;4.508;2023-03-03T15:29:58;102815.03;;;7.74;100.00
49030;BME280;43337;52.070;4.508;2023-03-03T15:35:05;102815.91;;;7.71;100.00
49030;BME280;43337;52.070;4.508;2023-03-03T15:37:46;102810.66;;;7.70;100.00
49030;BME280;43337;52.070;4.508;2023-03-03T15:42:56;102808.91;;;7.70;100.00
49030;BME280;43337;52.070;4.508;2023-03-03T15:45:31;102802.78;;;7.61;100.00
49030;BME280;43337;52.070;4.508;2023-03-03T15:53:11;102786.16;;;7.45;100.00